Time;durP1;ratioP1;P1;durP2;ratioP2;P2;SDS_P1;SDS_P2;PMS_P1;PMS_P2;Temp;Humidity;BMP_temperature;BMP_pressure;BME280_temperature;BME280_humidity;BME280_pressure;Samples;Min_cycle;Max_cycle;Signal;HPM_P1;HPM_P2
2021/03/01 00:00:13;;;;;;;29.33;15.43;;;;;;;-1.07;84.56;101986.59;2071260;28;20030;-74
2021/03/01 00:01:14;;;;;;;25.10;14.70;;;;;;;-1.09;84.57;101998.44;2070727;28;20030;-74
2021/03/01 00:02:14;;;;;;;29.03;15.53;;;;;;;-1.10;84.63;101991.56;2070641;28;20531;-73
2021/03/01 00:03:14;;;;;;;26.57;14.97;;;;;;;-1.00;84.30;101991.16;2071277;28;20061;-74
2021/03/01 00:04:15;;;;;;;29.13;14.90;;;;;;;-1.03;84.51;101995.28;2071005;28;20038;-74
2021/03/01 00:05:17;;;;;;;27.57;14.70;;;;;;;-1.06;84.43;101996.03;2071654;28;20036;-74
2021/03/01 00:06:18;;;;;;;25.02;14.88;;;;;;;-1.07;84.50;101996.81;2071454;28;20135;-73
2021/03/01 00:07:18;;;;;;;23.67;15.13;;;;;;;-1.12;84.47;101995.72;2071717;28;20042;-74
2021/03/01 00:08:19;;;;;;;24.00;14.30;;;;;;;-1.10;84.46;101994.09;2070621;28;20036;-74
2021/03/01 00:09:19;;;;;;;24.80;14.73;;;;;;;-1.15;84.35;101995.59;2070686;28;20504;-73
2021/03/01 00:10:20;;;;;;;27.00;14.53;;;;;;;-1.13;84.52;101994.00;2071406;28;20025;-73
2021/03/01 00:11:20;;;;;;;24.00;14.60;;;;;;;-1.16;84.39;101988.72;2069956;28;20033;-73
2021/03/01 00:12:21;;;;;;;23.30;14.17;;;;;;;-1.12;84.54;101990.59;2071549;28;20508;-73
2021/03/01 00:13:21;;;;;;;22.00;14.50;;;;;;;-1.11;84.58;101993.25;2071860;28;20030;-73
2021/03/01 00:14:22;;;;;;;26.35;14.82;;;;;;;-1.05;84.39;101987.53;2071347;28;20036;-74
2021/03/01 00:15:23;;;;;;;25.10;14.77;;;;;;;-1.04;84.08;101990.97;2072194;28;20034;-74
2021/03/01 00:16:24;;;;;;;27.23;15.07;;;;;;;-1.09;84.25;101990.75;2071603;28;20097;-74
2021/03/01 00:17:24;;;;;;;23.23;14.40;;;;;;;-0.98;84.30;101994.69;2072224;28;20075;-74
2021/03/01 00:18:25;;;;;;;24.58;13.68;;;;;;;-0.96;83.69;101992.19;2071050;28;20038;-74
2021/03/01 00:19:25;;;;;;;26.37;14.83;;;;;;;-1.03;84.13;101998.69;2071551;28;20033;-74
2021/03/01 00:20:25;;;;;;;23.57;13.83;;;;;;;-0.96;83.93;101998.19;2071487;28;20038;-74
2021/03/01 00:21:25;;;;;;;25.37;14.33;;;;;;;-1.00;83.83;101991.16;2071687;28;20061;-74
2021/03/01 00:22:26;;;;;;;26.33;14.03;;;;;;;-1.01;83.95;101989.41;2071620;28;20034;-74
2021/03/01 00:23:26;;;;;;;24.73;13.60;;;;;;;-0.95;83.77;101993.94;2072219;28;20387;-73
2021/03/01 00:24:26;;;;;;;22.67;13.70;;;;;;;-0.95;84.18;101988.81;2080528;28;20025;-74
2021/03/01 00:25:27;;;;;;;24.90;13.83;;;;;;;-0.91;84.13;101987.28;2079337;28;20049;-73
2021/03/01 00:26:27;;;;;;;24.57;14.53;;;;;;;-0.85;83.97;101990.13;2072073;28;20022;-73
2021/03/01 00:27:27;;;;;;;22.63;14.27;;;;;;;-0.93;83.79;101986.34;2072345;28;20130;-73
2021/03/01 00:28:28;;;;;;;27.10;13.97;;;;;;;-0.88;83.43;101993.41;2072526;28;20030;-73
2021/03/01 00:29:28;;;;;;;24.77;13.70;;;;;;;-0.98;83.59;101989.56;2072045;28;20094;-73
2021/03/01 00:30:28;;;;;;;23.53;14.17;;;;;;;-1.06;83.86;101984.88;2071574;28;20088;-73
2021/03/01 00:31:29;;;;;;;20.07;13.43;;;;;;;-1.02;83.76;101985.09;2071664;28;20384;-73
2021/03/01 00:32:29;;;;;;;25.70;14.60;;;;;;;-1.11;84.07;101988.13;2071239;28;20112;-73
2021/03/01 00:33:29;;;;;;;24.50;13.47;;;;;;;-1.05;83.80;101986.66;2072980;28;20033;-73
2021/03/01 00:34:30;;;;;;;21.83;12.43;;;;;;;-1.08;83.65;101992.50;2072212;28;20450;-73
2021/03/01 00:35:30;;;;;;;25.00;14.23;;;;;;;-1.04;84.13;101991.84;2072651;28;20038;-73
2021/03/01 00:36:30;;;;;;;23.73;14.33;;;;;;;-1.03;83.37;101995.28;2073046;28;20038;-73
2021/03/01 00:37:31;;;;;;;24.87;13.67;;;;;;;-1.06;83.88;101990.91;2072202;28;20846;-74
2021/03/01 00:38:31;;;;;;;25.37;13.80;;;;;;;-1.00;84.18;101995.44;2071156;28;20136;-73
2021/03/01 00:39:31;;;;;;;23.27;13.10;;;;;;;-1.00;84.09;101992.88;2071748;28;20161;-73
2021/03/01 00:40:32;;;;;;;26.10;13.23;;;;;;;-1.05;84.09;101991.75;2073505;28;20519;-74
2021/03/01 00:41:32;;;;;;;26.53;14.37;;;;;;;-1.06;84.31;101997.69;2073415;28;20285;-73
2021/03/01 00:42:33;;;;;;;27.23;14.00;;;;;;;-1.12;84.33;101990.59;2080698;28;20499;-74
2021/03/01 00:43:34;;;;;;;24.33;14.23;;;;;;;-1.08;84.23;101992.50;2079918;28;20029;-74
2021/03/01 00:44:34;;;;;;;26.40;13.52;;;;;;;-1.17;84.71;101987.81;2072785;28;20508;-74
2021/03/01 00:45:34;;;;;;;21.63;13.63;;;;;;;-1.20;84.89;101981.69;2071685;28;20041;-74
2021/03/01 00:46:34;;;;;;;23.53;13.73;;;;;;;-1.18;84.85;101990.31;2072450;28;20109;-74
2021/03/01 00:47:35;;;;;;;25.30;14.17;;;;;;;-1.16;84.77;101984.47;2088289;28;20431;-74
2021/03/01 00:48:35;;;;;;;22.73;13.83;;;;;;;-1.17;84.82;101981.84;2080652;28;20104;-74
2021/03/01 00:49:35;;;;;;;28.03;14.80;;;;;;;-1.15;85.26;101993.03;2064061;28;20054;-75
2021/03/01 00:50:36;;;;;;;22.90;13.47;;;;;;;-1.11;85.45;101993.25;2071926;28;20056;-74
2021/03/01 00:51:36;;;;;;;24.07;14.47;;;;;;;-1.14;85.41;101987.97;2072217;28;20037;-74
2021/03/01 00:52:36;;;;;;;26.50;14.10;;;;;;;-1.15;85.53;101990.47;2072061;28;20021;-76
2021/03/01 00:53:37;;;;;;;23.73;14.13;;;;;;;-1.13;85.41;101988.88;2080485;28;20112;-76
2021/03/01 00:54:37;;;;;;;22.27;13.83;;;;;;;-1.20;85.55;101981.69;2080153;28;20040;-74
2021/03/01 00:55:38;;;;;;;25.42;14.63;;;;;;;-1.18;85.00;101995.44;2071217;28;20025;-74
2021/03/01 00:56:38;;;;;;;24.87;13.77;;;;;;;-1.11;85.00;101994.91;2071541;28;20026;-74
2021/03/01 00:57:38;;;;;;;24.23;13.07;;;;;;;-1.20;85.40;101995.38;2073043;28;20499;-74
2021/03/01 00:58:38;;;;;;;24.67;13.77;;;;;;;-1.19;85.87;101991.13;2080212;28;20023;-74
2021/03/01 00:59:39;;;;;;;70.93;39.67;;;;;;;-1.21;85.97;101995.28;2079442;28;20555;-74
2021/03/01 01:00:39;;;;;;;37.37;21.87;;;;;;;-1.22;85.73;101990.97;2071714;28;20029;-74
2021/03/01 01:01:39;;;;;;;24.73;14.10;;;;;;;-1.14;85.93;101990.53;2072009;28;20459;-74
2021/03/01 01:02:40;;;;;;;157.00;81.90;;;;;;;-1.13;85.48;101992.28;2072469;28;20996;-73
2021/03/01 01:03:40;;;;;;;35.57;20.00;;;;;;;-1.23;85.67;101996.91;2070551;28;20084;-74
2021/03/01 01:04:40;;;;;;;35.37;18.27;;;;;;;-1.28;85.74;101989.88;2072752;28;21498;-74
2021/03/01 01:05:41;;;;;;;36.00;20.27;;;;;;;-1.28;85.94;101989.88;2072950;28;20053;-75
2021/03/01 01:06:41;;;;;;;34.80;19.73;;;;;;;-1.30;86.20;101985.50;2072679;28;20032;-74
2021/03/01 01:07:41;;;;;;;26.53;14.03;;;;;;;-1.15;86.14;101990.47;2072648;28;20041;-74
2021/03/01 01:08:42;;;;;;;27.57;15.17;;;;;;;-1.23;86.50;101990.09;2073364;28;20045;-75
2021/03/01 01:09:42;;;;;;;25.13;14.30;;;;;;;-1.22;86.83;101994.41;2073067;28;20026;-75
2021/03/01 01:10:42;;;;;;;25.67;14.03;;;;;;;-1.32;86.59;101992.22;2080863;28;20026;-74
2021/03/01 01:11:44;;;;;;;24.23;14.43;;;;;;;-1.35;86.66;101994.63;2080729;28;20072;-74
2021/03/01 01:12:44;;;;;;;24.17;13.85;;;;;;;-1.36;86.74;101988.66;2072875;28;20037;-73
2021/03/01 01:13:45;;;;;;;25.73;14.23;;;;;;;-1.36;86.53;101998.00;2073099;28;20132;-74
2021/03/01 01:14:45;;;;;;;25.13;13.27;;;;;;;-1.39;86.91;101996.19;2071529;28;20424;-74
2021/03/01 01:15:45;;;;;;;24.07;14.00;;;;;;;-1.41;86.55;101988.44;2072845;28;20316;-74
2021/03/01 01:16:46;;;;;;;23.57;13.50;;;;;;;-1.28;87.13;101989.03;2071934;28;20092;-74
2021/03/01 01:17:46;;;;;;;24.73;14.47;;;;;;;-1.37;86.90;101999.69;2079626;28;20121;-74
2021/03/01 01:18:46;;;;;;;22.42;13.95;;;;;;;-1.33;86.88;101993.03;2080009;28;20068;-74
2021/03/01 01:19:47;;;;;;;23.07;13.60;;;;;;;-1.34;86.89;101992.16;2072292;28;20034;-74
2021/03/01 01:20:47;;;;;;;23.50;13.63;;;;;;;-1.36;86.60;101988.66;2071997;28;20395;-74
2021/03/01 01:21:48;;;;;;;23.37;13.17;;;;;;;-1.41;86.98;101993.56;2070384;28;20073;-74
2021/03/01 01:22:48;;;;;;;24.67;14.00;;;;;;;-1.46;87.39;101989.03;2073263;28;20096;-74
2021/03/01 01:23:48;;;;;;;26.77;14.30;;;;;;;-1.40;87.36;101989.31;2073065;28;20010;-74
2021/03/01 01:24:48;;;;;;;25.50;14.03;;;;;;;-1.40;87.33;101991.84;2073112;28;20498;-75
2021/03/01 01:25:49;;;;;;;26.33;14.60;;;;;;;-1.20;87.50;101992.81;2065460;28;20024;-75
2021/03/01 01:26:49;;;;;;;26.07;14.80;;;;;;;-1.24;87.11;101996.03;2065379;28;20026;-75
2021/03/01 01:27:49;;;;;;;38.77;15.03;;;;;;;-1.28;87.19;101995.00;2065663;28;20026;-75
2021/03/01 01:28:50;;;;;;;24.93;14.97;;;;;;;-1.32;87.30;101993.09;2073427;28;20097;-75
2021/03/01 01:29:50;;;;;;;22.43;13.97;;;;;;;-1.18;86.87;101988.66;2068983;28;20018;-75
2021/03/01 01:30:51;;;;;;;24.47;13.93;;;;;;;-1.12;86.10;101991.50;2068328;28;20044;-75
2021/03/01 01:31:51;;;;;;;26.23;13.67;;;;;;;-1.11;86.21;101988.13;2066645;28;20068;-75
2021/03/01 01:32:52;;;;;;;25.20;14.10;;;;;;;-1.16;86.25;101988.72;2069371;28;20025;-75
2021/03/01 01:33:53;;;;;;;25.70;14.48;;;;;;;-1.17;86.85;101987.81;2073635;28;20017;-75
2021/03/01 01:34:53;;;;;;;24.13;13.77;;;;;;;-1.23;86.90;101989.25;2073081;28;20072;-75
2021/03/01 01:35:53;;;;;;;26.23;14.03;;;;;;;-1.11;87.04;101983.00;2073024;28;20284;-75
2021/03/01 01:36:53;;;;;;;28.97;14.60;;;;;;;-1.20;86.88;101981.69;2073671;28;20018;-75
2021/03/01 01:37:54;;;;;;;23.93;13.20;;;;;;;-1.28;86.88;101984.78;2073808;28;20040;-75
2021/03/01 01:38:57;;;;;;;23.57;14.17;;;;;;;-1.21;86.64;101980.81;2074004;28;20518;-75
2021/03/01 01:39:57;;;;;;;25.10;13.90;;;;;;;-1.20;86.80;101981.69;2072662;28;20100;-75
2021/03/01 01:40:57;;;;;;;21.73;14.10;;;;;;;-1.26;86.90;101983.16;2067461;28;20037;-75
2021/03/01 01:41:58;;;;;;;22.87;14.07;;;;;;;-1.25;86.89;101984.03;2065731;28;20495;-74
2021/03/01 01:42:58;;;;;;;24.13;13.97;;;;;;;-1.31;86.87;101982.06;2067372;28;20046;-74
2021/03/01 01:43:58;;;;;;;24.07;13.73;;;;;;;-1.30;87.74;101976.16;2073744;28;20040;-75
2021/03/01 01:45:00;;;;;;;24.53;14.30;;;;;;;-1.29;87.36;101980.47;2072909;28;20030;-75
2021/03/01 01:46:00;;;;;;;24.02;13.05;;;;;;;-1.30;87.80;101983.81;2064956;28;20105;-75
2021/03/01 01:47:00;;;;;;;24.00;13.03;;;;;;;-1.32;87.51;101982.88;2060330;28;20033;-75
2021/03/01 01:48:01;;;;;;;35.10;13.80;;;;;;;-1.30;87.42;101981.25;2073148;28;20120;-75
2021/03/01 01:49:01;;;;;;;22.97;13.77;;;;;;;-1.27;86.95;101977.97;2072991;28;20495;-75
2021/03/01 01:50:04;;;;;;;23.50;13.40;;;;;;;-1.36;87.14;101975.88;2072959;28;20022;-75
2021/03/01 01:51:05;;;;;;;23.27;13.38;;;;;;;-1.36;87.36;101973.31;2073857;28;20026;-75
2021/03/01 01:52:05;;;;;;;24.50;13.50;;;;;;;-1.37;87.37;101974.09;2072246;28;20108;-75
2021/03/01 01:53:06;;;;;;;24.43;13.80;;;;;;;-1.31;87.73;101970.97;2073130;28;20499;-75
2021/03/01 01:54:06;;;;;;;24.85;14.35;;;;;;;-1.35;87.58;101974.16;2073791;28;20034;-75
2021/03/01 01:55:08;;;;;;;25.37;14.20;;;;;;;-1.41;87.63;101973.09;2072960;28;20112;-75
2021/03/01 01:56:08;;;;;;;22.88;13.18;;;;;;;-1.46;88.00;101968.56;2072935;28;20030;-75
2021/03/01 01:57:11;;;;;;;23.27;13.53;;;;;;;-1.47;88.13;101971.91;2073057;28;20622;-75
2021/03/01 01:58:11;;;;;;;23.30;13.63;;;;;;;-1.28;87.70;101971.97;2073160;28;20017;-75
2021/03/01 01:59:12;;;;;;;26.05;14.60;;;;;;;-1.41;87.51;101967.97;2073688;28;20029;-75
2021/03/01 02:01:35;;;;;;;24.77;13.45;;;;;;;-1.38;88.25;101967.25;2073842;28;20113;-75
2021/03/01 02:02:36;;;;;;;25.70;14.40;;;;;;;-1.33;87.89;101970.91;2073815;28;20030;-75
2021/03/01 02:03:47;;;;;;;25.42;13.80;;;;;;;-1.36;88.11;101972.41;2081183;28;20029;-75
2021/03/01 02:04:52;;;;;;;25.42;14.35;;;;;;;-1.40;88.06;101966.28;2072055;28;20014;-75
2021/03/01 02:05:57;;;;;;;22.92;13.50;;;;;;;-1.45;88.12;101965.19;2065027;28;20089;-75
2021/03/01 02:07:26;;;;;;;25.48;13.20;;;;;;;-1.51;87.98;101968.34;2068924;28;20034;-75
2021/03/01 02:08:47;;;;;;;25.42;14.25;;;;;;;-1.56;88.16;101957.00;2075815;28;20132;-75
2021/03/01 02:10:12;;;;;;;24.10;13.05;;;;;;;-1.57;87.83;101970.63;2070402;28;20435;-75
2021/03/01 02:11:28;;;;;;;24.60;12.90;;;;;;;-1.57;88.07;101966.38;2065755;28;20121;-75
2021/03/01 02:12:41;;;;;;;25.58;12.95;;;;;;;-1.64;88.02;101964.31;2078400;28;20036;-75
2021/03/01 02:14:17;;;;;;;24.88;13.63;;;;;;;-1.71;88.40;101957.13;2079797;28;20108;-75
2021/03/01 02:15:41;;;;;;;26.00;12.90;;;;;;;-1.72;88.33;101952.84;2073565;28;20349;-75
2021/03/01 02:16:42;;;;;;;24.85;13.57;;;;;;;-1.72;88.86;101951.16;2073807;28;20577;-75
2021/03/01 02:17:42;;;;;;;25.70;14.20;;;;;;;-1.74;89.02;101952.75;2073797;28;20109;-75
2021/03/01 02:18:45;;;;;;;26.17;13.47;;;;;;;-1.77;88.64;101957.75;2073952;28;20049;-75
2021/03/01 02:19:45;;;;;;;24.30;13.00;;;;;;;-1.80;88.74;101957.59;2073719;28;20022;-75
2021/03/01 02:20:46;;;;;;;24.63;13.93;;;;;;;-1.84;88.85;101955.66;2073323;28;20053;-75
2021/03/01 02:21:47;;;;;;;24.88;13.80;;;;;;;-1.90;89.18;101955.38;2073001;28;20025;-75
2021/03/01 02:22:47;;;;;;;24.63;14.70;;;;;;;-1.89;89.13;101960.56;2073793;28;20108;-75
2021/03/01 02:23:48;;;;;;;25.23;13.40;;;;;;;-1.93;89.35;101945.00;2074151;28;20021;-75
2021/03/01 02:24:59;;;;;;;24.60;13.60;;;;;;;-1.88;89.19;101958.91;2067549;28;20061;-75
2021/03/01 02:26:03;;;;;;;25.52;13.77;;;;;;;-1.89;89.14;101950.34;2073586;28;20022;-75
2021/03/01 02:27:04;;;;;;;24.50;14.00;;;;;;;-1.95;88.93;101947.50;2074458;28;20049;-75
2021/03/01 02:28:08;;;;;;;25.25;14.40;;;;;;;-1.89;88.93;101957.13;2065943;28;20030;-75
2021/03/01 02:29:11;;;;;;;25.65;14.35;;;;;;;-1.91;89.31;101954.50;2065742;28;20026;-75
2021/03/01 02:30:32;;;;;;;24.60;13.70;;;;;;;-1.90;89.64;101956.25;2065908;28;20385;-75
2021/03/01 02:31:36;;;;;;;25.63;14.45;;;;;;;-1.93;89.79;101950.09;2065569;28;20085;-75
2021/03/01 02:32:38;;;;;;;25.00;13.40;;;;;;;-1.95;90.04;101949.16;2065257;28;20102;-75
2021/03/01 02:33:44;;;;;;;25.45;13.85;;;;;;;-1.97;89.52;101954.19;2072440;28;20017;-74
2021/03/01 02:34:46;;;;;;;22.83;13.77;;;;;;;-1.99;89.69;101950.69;2073698;28;20022;-75
2021/03/01 02:35:52;;;;;;;24.38;13.52;;;;;;;-1.88;89.67;101954.66;2070227;28;20019;-75
2021/03/01 02:36:55;;;;;;;23.65;13.75;;;;;;;-1.97;89.60;101950.78;2065491;28;20040;-75
2021/03/01 02:37:59;;;;;;;22.85;13.45;;;;;;;-1.97;89.43;101954.19;2065476;28;20026;-75
2021/03/01 02:39:04;;;;;;;26.90;14.00;;;;;;;-1.98;89.51;101952.44;2065501;28;20118;-75
2021/03/01 02:40:05;;;;;;;23.25;13.52;;;;;;;-2.03;89.69;101954.78;2080827;28;20022;-75
2021/03/01 02:41:07;;;;;;;27.10;13.73;;;;;;;-2.07;89.94;101951.97;2080980;28;20029;-75
2021/03/01 02:42:09;;;;;;;25.65;13.73;;;;;;;-2.09;89.74;101954.47;2072109;28;20049;-75
2021/03/01 02:43:11;;;;;;;24.10;13.57;;;;;;;-2.09;89.86;101958.69;2072978;28;20030;-75
2021/03/01 02:44:12;;;;;;;23.10;13.75;;;;;;;-2.09;89.92;101954.47;2073627;28;20022;-75
2021/03/01 02:45:14;;;;;;;23.70;13.80;;;;;;;-2.05;89.71;101958.91;2073489;28;20041;-75
2021/03/01 02:46:16;;;;;;;20.75;12.45;;;;;;;-2.10;90.01;101956.94;2072443;28;20038;-75
2021/03/01 02:47:18;;;;;;;25.35;13.82;;;;;;;-2.09;90.22;101956.13;2072688;28;20451;-75
2021/03/01 02:48:20;;;;;;;25.73;14.75;;;;;;;-1.98;90.23;101954.13;2072939;28;20026;-75
2021/03/01 02:49:20;;;;;;;26.95;14.32;;;;;;;-2.02;90.12;101958.22;2073713;28;20507;-75
2021/03/01 02:50:23;;;;;;;22.40;13.03;;;;;;;-1.98;90.23;101957.56;2073322;28;20065;-75
2021/03/01 02:51:25;;;;;;;23.90;14.50;;;;;;;-2.05;90.35;101958.91;2073415;28;20068;-75
2021/03/01 02:52:26;;;;;;;26.75;14.07;;;;;;;-2.09;90.41;101959.59;2066394;28;20109;-75
2021/03/01 02:53:29;;;;;;;24.17;13.10;;;;;;;-2.11;90.47;101970.53;2065260;28;20034;-75
2021/03/01 02:54:30;;;;;;;22.25;12.65;;;;;;;-2.11;90.37;101957.75;2064518;28;20023;-75
2021/03/01 02:55:30;;;;;;;24.52;13.60;;;;;;;-2.13;90.54;101965.31;2064478;28;20108;-74
2021/03/01 02:56:32;;;;;;;27.63;14.40;;;;;;;-2.16;90.77;101966.84;2064469;28;20061;-75
2021/03/01 02:57:33;;;;;;;24.15;13.57;;;;;;;-2.19;90.40;101968.44;2064539;28;20297;-74
2021/03/01 02:58:36;;;;;;;26.02;14.02;;;;;;;-2.11;90.25;101963.72;2066606;28;20064;-75
2021/03/01 02:59:38;;;;;;;22.23;13.40;;;;;;;-2.17;90.20;101965.09;2072508;28;20500;-75
2021/03/01 03:00:39;;;;;;;25.38;13.77;;;;;;;-2.25;90.16;101962.16;2073226;28;20072;-75
2021/03/01 03:01:41;;;;;;;28.70;14.75;;;;;;;-2.28;90.69;101962.00;2073136;28;20029;-75
2021/03/01 03:02:42;;;;;;;;;;;;;;;-2.33;90.96;101961.78;2072905;28;20666;-75
2021/03/01 03:03:46;;;;;;;25.42;13.45;;;;;;;-2.25;90.92;101962.16;2072450;28;19917;-75
2021/03/01 03:04:48;;;;;;;22.75;13.38;;;;;;;-2.34;91.13;101962.56;2068497;28;20017;-75
2021/03/01 03:05:48;;;;;;;25.73;14.77;;;;;;;-2.39;91.18;101956.34;2068595;28;20054;-75
2021/03/01 03:06:50;;;;;;;27.53;14.40;;;;;;;-2.38;91.32;101960.66;2072351;28;20054;-75
2021/03/01 03:07:51;;;;;;;26.08;14.27;;;;;;;-2.32;91.56;101961.00;2080474;28;20052;-75
2021/03/01 03:08:53;;;;;;;22.85;12.98;;;;;;;-2.37;91.22;101958.19;2065160;28;20022;-75
2021/03/01 03:09:54;;;;;;;26.13;14.25;;;;;;;-2.40;91.13;101952.06;2064118;28;20412;-75
2021/03/01 03:10:55;;;;;;;27.85;14.23;;;;;;;-2.40;91.11;101952.06;2064463;28;20432;-75
2021/03/01 03:12:00;;;;;;;25.73;14.30;;;;;;;-2.45;91.29;101954.34;2065130;28;20168;-75
2021/03/01 03:13:03;;;;;;;25.15;13.10;;;;;;;-2.42;91.14;101957.06;2065220;28;20030;-75
2021/03/01 03:14:09;;;;;;;29.95;15.13;;;;;;;-2.47;91.18;101949.97;2072440;28;20022;-75
2021/03/01 03:15:15;;;;;;;26.70;14.00;;;;;;;-2.48;91.27;101950.75;2071831;28;20069;-75
2021/03/01 03:16:17;;;;;;;24.13;13.60;;;;;;;-2.46;91.37;101946.63;2080452;28;20025;-75
2021/03/01 03:17:19;;;;;;;28.65;14.40;;;;;;;-2.50;91.43;101945.59;2074019;28;20033;-75
2021/03/01 03:18:22;;;;;;;23.60;13.45;;;;;;;-2.53;91.79;101951.44;2072392;28;20648;-75
2021/03/01 03:19:24;;;;;;;24.42;13.75;;;;;;;-2.50;91.65;101951.56;2073067;28;20029;-75
2021/03/01 03:20:25;;;;;;;;;;;;;;;-2.50;91.53;101949.00;2073549;28;20025;-75
2021/03/01 03:21:25;;;;;;;23.25;13.32;;;;;;;-2.47;91.57;101952.53;2073123;28;19917;-75
2021/03/01 03:22:25;;;;;;;24.57;13.40;;;;;;;-2.51;91.93;101951.50;2072877;28;20061;-74
2021/03/01 03:23:26;;;;;;;25.87;14.53;;;;;;;-2.53;91.77;101953.97;2073174;28;20061;-75
2021/03/01 03:24:26;;;;;;;25.93;13.43;;;;;;;-2.56;91.73;101950.41;2072893;28;20053;-75
2021/03/01 03:26:29;;;;;;;24.67;14.18;;;;;;;-2.61;91.75;101947.59;2075819;28;20045;-55
2021/03/01 03:27:29;;;;;;;26.80;14.43;;;;;;;-2.59;91.92;101948.53;2078067;28;20025;-55
2021/03/01 03:28:30;;;;;;;25.30;14.03;;;;;;;-2.58;91.85;101944.31;2080164;28;20107;-54
2021/03/01 03:29:31;;;;;;;24.67;14.37;;;;;;;-2.61;92.10;101955.25;2079922;28;20401;-56
2021/03/01 03:30:32;;;;;;;26.77;14.35;;;;;;;-2.57;92.00;101948.63;2080207;28;20053;-55
2021/03/01 03:31:32;;;;;;;25.98;14.75;;;;;;;-2.65;92.19;101950.78;2080608;28;20504;-56
2021/03/01 03:32:32;;;;;;;24.63;13.63;;;;;;;-2.65;91.87;101945.69;2080277;28;20151;-54
2021/03/01 03:33:33;;;;;;;26.73;13.97;;;;;;;-2.62;91.93;101945.84;2079463;28;20596;-56
2021/03/01 03:34:33;;;;;;;23.43;13.20;;;;;;;-2.64;91.87;101952.53;2079578;28;20022;-56
2021/03/01 03:35:35;;;;;;;24.17;13.67;;;;;;;-2.65;92.12;101958.44;2078928;28;20315;-53
2021/03/01 03:36:43;;;;;;;27.10;14.73;;;;;;;-2.61;92.42;101951.81;2078939;28;20021;-53
2021/03/01 03:37:48;;;;;;;23.73;13.65;;;;;;;-2.60;92.15;101951.91;2080757;28;20075;-52
2021/03/01 03:38:59;;;;;;;28.20;14.23;;;;;;;-2.67;92.10;101950.72;2080059;28;20025;-53
2021/03/01 03:40:02;;;;;;;27.55;14.68;;;;;;;-2.66;92.48;101955.03;2080235;28;20033;-54
2021/03/01 03:41:04;;;;;;;24.75;14.07;;;;;;;-2.63;92.90;101954.28;2080313;28;20112;-53
2021/03/01 03:42:05;;;;;;;24.85;13.48;;;;;;;-2.70;92.93;101952.22;2079041;28;20029;-54
2021/03/01 03:43:06;;;;;;;25.38;14.23;;;;;;;-2.71;93.02;101959.00;2079940;28;20040;-53
2021/03/01 03:44:09;;;;;;;27.35;14.63;;;;;;;-2.67;93.02;101944.72;2080248;28;20021;-53
2021/03/01 03:45:13;;;;;;;25.58;14.30;;;;;;;-2.60;92.88;101949.34;2076591;28;20029;-54
2021/03/01 03:46:15;;;;;;;29.25;14.95;;;;;;;-2.65;92.84;101945.69;2078461;28;20032;-53
2021/03/01 03:47:15;;;;;;;26.95;14.23;;;;;;;-2.69;92.73;101953.97;2076584;28;20474;-49
2021/03/01 03:48:19;;;;;;;25.98;14.50;;;;;;;-2.71;92.95;101958.13;2078157;28;20052;-54
2021/03/01 03:49:20;;;;;;;33.47;14.77;;;;;;;-2.73;92.85;101958.03;2074583;28;20047;-52
2021/03/01 03:50:22;;;;;;;;;;;;;;;-2.76;93.09;101952.78;2077890;28;20037;-53
2021/03/01 03:51:26;;;;;;;29.63;13.65;;;;;;;-2.77;93.25;101960.34;2077842;28;19913;-54
2021/03/01 03:52:30;;;;;;;27.35;13.48;;;;;;;-2.79;93.15;101951.75;2076802;28;20064;-54
2021/03/01 03:53:37;;;;;;;25.85;14.23;;;;;;;-2.79;93.24;101946.66;2076825;28;20023;-54
2021/03/01 03:54:40;;;;;;;27.52;14.15;;;;;;;-2.77;93.17;101955.22;2075778;28;20026;-52
2021/03/01 03:55:46;;;;;;;25.92;13.82;;;;;;;-2.75;93.26;101958.75;2071678;28;20674;-54
2021/03/01 03:56:55;;;;;;;24.90;13.57;;;;;;;-2.73;93.24;101954.63;2071633;28;20030;-53
2021/03/01 03:58:12;;;;;;;28.35;13.93;;;;;;;-2.74;93.68;101952.84;2080194;28;20021;-53
2021/03/01 03:59:15;;;;;;;25.80;13.55;;;;;;;-2.68;93.76;101948.06;2077672;28;20390;-54
2021/03/01 04:00:17;;;;;;;26.30;14.70;;;;;;;-2.69;93.90;101949.75;2080203;28;20036;-54
2021/03/01 04:01:21;;;;;;;25.27;14.18;;;;;;;-2.68;94.19;101954.06;2080268;28;20112;-52
2021/03/01 04:02:22;;;;;;;25.92;14.40;;;;;;;-2.71;94.18;101950.47;2080567;28;20390;-53
2021/03/01 04:03:24;;;;;;;25.35;13.68;;;;;;;-2.76;94.02;101951.88;2080195;28;20463;-54
2021/03/01 04:04:26;;;;;;;;;;;;;;;-2.65;93.78;101950.78;2080504;28;20489;-53
2021/03/01 04:05:28;;;;;;;28.77;13.05;;;;;;;-2.67;93.88;101942.16;2080572;28;20423;-54
2021/03/01 04:06:31;;;;;;;23.50;14.00;;;;;;;-2.72;94.10;101946.16;2080190;28;20386;-54
2021/03/01 04:07:32;;;;;;;24.25;14.38;;;;;;;-2.73;94.06;101947.81;2080674;28;20125;-54
2021/03/01 04:08:33;;;;;;;;;;;;;;;-2.75;94.02;101948.53;2081104;28;20029;-54
2021/03/01 04:09:35;;;;;;;22.73;12.75;;;;;;;-2.77;94.18;101952.69;2079673;28;19920;-54
2021/03/01 04:10:36;;;;;;;23.75;12.70;;;;;;;-2.79;94.50;101951.75;2080235;28;20025;-52
2021/03/01 04:11:40;;;;;;;24.00;13.35;;;;;;;-2.77;94.43;101951.03;2080130;28;20017;-54
2021/03/01 04:12:44;;;;;;;22.60;13.63;;;;;;;-2.80;94.29;101957.66;2080238;28;20061;-55
2021/03/01 04:13:46;;;;;;;25.83;13.65;;;;;;;-2.83;94.50;101954.13;2079987;28;20431;-54
2021/03/01 04:14:49;;;;;;;23.42;13.40;;;;;;;-2.71;94.31;101951.34;2076283;28;20017;-54
2021/03/01 04:15:49;;;;;;;26.25;14.15;;;;;;;-2.77;94.22;101955.22;2079257;28;20510;-54
2021/03/01 04:16:54;;;;;;;29.83;13.90;;;;;;;-2.82;94.31;101945.69;2080741;28;20032;-54
2021/03/01 04:17:55;;;;;;;26.75;14.52;;;;;;;-2.74;94.71;101945.19;2080551;28;20065;-54
2021/03/01 04:19:01;;;;;;;24.15;13.18;;;;;;;-2.77;94.82;101957.78;2079773;28;20033;-55
2021/03/01 04:20:04;;;;;;;26.35;14.63;;;;;;;-2.76;94.83;101955.34;2079102;28;20732;-53
2021/03/01 04:21:08;;;;;;;26.23;13.77;;;;;;;-2.77;94.78;101950.13;2080466;28;20510;-54
2021/03/01 04:22:09;;;;;;;26.25;13.52;;;;;;;-2.66;94.60;101951.56;2079982;28;20029;-54
2021/03/01 04:23:10;;;;;;;30.63;15.32;;;;;;;-2.73;94.84;101955.47;2079710;28;20018;-54
2021/03/01 04:24:15;;;;;;;26.38;14.70;;;;;;;-2.75;95.13;101953.66;2079559;28;20100;-54
2021/03/01 04:25:17;;;;;;;26.73;14.57;;;;;;;-2.65;95.33;101953.34;2080206;28;20398;-54
2021/03/01 04:26:18;;;;;;;28.05;14.15;;;;;;;-2.69;95.46;101959.06;2080129;28;20030;-52
2021/03/01 04:27:19;;;;;;;25.10;14.82;;;;;;;-2.72;95.55;101953.81;2080229;28;20057;-53
2021/03/01 04:28:20;;;;;;;28.13;13.75;;;;;;;-2.72;95.52;101959.78;2080085;28;20033;-54
2021/03/01 04:29:26;;;;;;;29.38;15.35;;;;;;;-2.75;95.51;101961.31;2077231;28;20557;-54
2021/03/01 04:30:26;;;;;;;25.90;14.32;;;;;;;-2.77;95.54;101963.78;2079990;28;20168;-54
2021/03/01 04:31:28;;;;;;;27.67;14.82;;;;;;;-2.80;95.57;101955.09;2080604;28;20056;-54
2021/03/01 04:32:29;;;;;;;25.73;14.20;;;;;;;-2.80;95.49;101957.66;2080147;28;20544;-53
2021/03/01 04:33:30;;;;;;;22.27;13.45;;;;;;;-2.85;95.48;101962.50;2079792;28;20040;-54
2021/03/01 04:34:32;;;;;;;27.48;13.73;;;;;;;-2.87;95.36;101959.84;2079358;28;20519;-53
2021/03/01 04:35:32;;;;;;;23.95;13.88;;;;;;;-2.84;95.25;101954.06;2080217;28;20108;-54
2021/03/01 04:36:33;;;;;;;25.27;14.55;;;;;;;-2.70;95.52;101954.78;2080308;28;20033;-52
2021/03/01 04:37:35;;;;;;;28.00;14.77;;;;;;;-2.67;95.58;101952.38;2080416;28;20029;-54
2021/03/01 04:38:36;;;;;;;;;;;;;;;-2.76;95.92;101962.09;2080653;28;20113;-55
2021/03/01 04:39:36;;;;;;;25.55;13.45;;;;;;;-2.72;96.31;101956.38;2080160;28;19916;-55
2021/03/01 04:40:37;;;;;;;25.40;14.17;;;;;;;-2.73;96.28;101957.16;2080230;28;20053;-54
2021/03/01 04:41:37;;;;;;;25.00;14.07;;;;;;;-2.75;96.14;101963.84;2080363;28;20025;-54
2021/03/01 04:42:42;;;;;;;24.58;13.57;;;;;;;-2.80;96.01;101960.19;2080116;28;20417;-53
2021/03/01 04:43:44;;;;;;;27.05;14.77;;;;;;;-2.74;96.07;101957.97;2080006;28;20075;-55
2021/03/01 04:44:46;;;;;;;28.00;15.00;;;;;;;-2.76;96.13;101963.00;2079754;28;20116;-55
2021/03/01 04:45:49;;;;;;;28.50;14.38;;;;;;;-2.74;96.31;101961.38;2079390;28;20678;-55